Terminal Aerodrome Forecast
Issued by NWS Missoula, MT

Home | Current Version | Previous Version | Text Only | Print | Product List | Glossary On
Versions: 1 2 3 4 5 6 7 8 9 10 11 12 13 14 15
000
FTUS45 KMSO 021723
TAFMSO
TAF
KMSO 021723Z 0218/0318 VRB03KT P6SM SCT120
     FM022000 30010G18KT P6SM BKN070
     FM030300 32008KT P6SM VCSH OVC070
     FM030800 VRB03KT P6SM -RA OVC050=

USA.gov is the U.S. government's official web portal to all federal, state and local government web resources and services.